Nortonville, Illinois
Current Conditions -  °F | °C
As of 6:55 PM on Wednesday 22 Oct 2014 (Local Time) from KIJX Reporting Station
Clear Clear  
Wind Chill: 45°   Ceiling: Unl
Heat Index: 48°   Visibility: 10mi
Dew Point: 39°   Wind: 7mph
Humidity: 70%   Direction: 100°E
Pressure: 30.21"   Gusts: NA
Location:  39.5633°N, 90.2043°W
Report Text: KIJX 222355Z AUTO 10006KT 10SM CLR 09/04 A3021 RMK AO2 T00910039 10177 20091
Loading
Personal Weather Stations






























Interactive Weather Map
Tropical Storm Tracking
New forecast layout! Learn more

10-Day Weather Forecast

Advertisements
Track Severe Weather on mobile